sensor_id;sensor_type;location;lat;lon;timestamp;P1;durP1;ratioP1;P2;durP2;ratioP2
36221;SDS011;22266;52.340;4.962;2023-01-16T00:01:13;8.25;;;8.25;;
36221;SDS011;22266;52.340;4.962;2023-01-16T00:03:40;10.75;;;9.00;;
36221;SDS011;22266;52.340;4.962;2023-01-16T00:06:07;16.00;;;10.50;;
36221;SDS011;22266;52.340;4.962;2023-01-16T00:08:33;13.25;;;11.25;;
36221;SDS011;22266;52.340;4.962;2023-01-16T00:10:59;13.75;;;11.50;;
36221;SDS011;22266;52.340;4.962;2023-01-16T00:13:26;13.00;;;12.25;;
36221;SDS011;22266;52.340;4.962;2023-01-16T00:15:52;12.75;;;12.75;;
36221;SDS011;22266;52.340;4.962;2023-01-16T00:18:19;12.00;;;11.25;;
36221;SDS011;22266;52.340;4.962;2023-01-16T00:20:46;16.75;;;15.00;;
36221;SDS011;22266;52.340;4.962;2023-01-16T00:23:14;13.75;;;12.75;;
36221;SDS011;22266;52.340;4.962;2023-01-16T00:25:42;16.25;;;13.75;;
36221;SDS011;22266;52.340;4.962;2023-01-16T00:28:11;13.75;;;13.00;;
36221;SDS011;22266;52.340;4.962;2023-01-16T00:30:39;15.75;;;13.50;;
36221;SDS011;22266;52.340;4.962;2023-01-16T00:33:05;16.50;;;12.50;;
36221;SDS011;22266;52.340;4.962;2023-01-16T00:35:32;13.50;;;10.50;;
36221;SDS011;22266;52.340;4.962;2023-01-16T00:37:59;13.50;;;12.00;;
36221;SDS011;22266;52.340;4.962;2023-01-16T00:40:26;14.00;;;13.00;;
36221;SDS011;22266;52.340;4.962;2023-01-16T00:42:53;14.50;;;10.25;;
36221;SDS011;22266;52.340;4.962;2023-01-16T00:45:19;11.00;;;10.50;;
36221;SDS011;22266;52.340;4.962;2023-01-16T00:47:46;15.75;;;12.75;;
36221;SDS011;22266;52.340;4.962;2023-01-16T00:50:12;12.75;;;10.75;;
36221;SDS011;22266;52.340;4.962;2023-01-16T00:52:39;19.75;;;17.00;;
36221;SDS011;22266;52.340;4.962;2023-01-16T00:55:06;15.25;;;15.00;;
36221;SDS011;22266;52.340;4.962;2023-01-16T00:57:32;16.75;;;12.00;;
36221;SDS011;22266;52.340;4.962;2023-01-16T00:59:58;12.25;;;10.00;;
36221;SDS011;22266;52.340;4.962;2023-01-16T01:02:25;13.25;;;13.25;;
36221;SDS011;22266;52.340;4.962;2023-01-16T01:04:51;14.75;;;11.50;;
36221;SDS011;22266;52.340;4.962;2023-01-16T01:07:18;8.50;;;8.50;;
36221;SDS011;22266;52.340;4.962;2023-01-16T01:09:44;15.25;;;11.00;;
36221;SDS011;22266;52.340;4.962;2023-01-16T01:12:11;12.50;;;9.50;;
36221;SDS011;22266;52.340;4.962;2023-01-16T01:14:37;11.50;;;9.25;;
36221;SDS011;22266;52.340;4.962;2023-01-16T01:17:03;9.00;;;6.50;;
36221;SDS011;22266;52.340;4.962;2023-01-16T01:19:30;10.50;;;7.75;;
36221;SDS011;22266;52.340;4.962;2023-01-16T01:21:56;9.75;;;8.50;;
36221;SDS011;22266;52.340;4.962;2023-01-16T01:24:23;8.25;;;8.25;;
36221;SDS011;22266;52.340;4.962;2023-01-16T01:26:49;13.00;;;8.00;;
36221;SDS011;22266;52.340;4.962;2023-01-16T01:29:16;10.00;;;8.00;;
36221;SDS011;22266;52.340;4.962;2023-01-16T01:31:42;8.50;;;8.50;;
36221;SDS011;22266;52.340;4.962;2023-01-16T01:34:09;11.00;;;9.50;;
36221;SDS011;22266;52.340;4.962;2023-01-16T01:36:35;13.00;;;8.00;;
36221;SDS011;22266;52.340;4.962;2023-01-16T01:39:02;11.25;;;7.00;;
36221;SDS011;22266;52.340;4.962;2023-01-16T01:41:28;6.75;;;5.50;;
36221;SDS011;22266;52.340;4.962;2023-01-16T01:43:55;7.75;;;7.75;;
36221;SDS011;22266;52.340;4.962;2023-01-16T01:46:27;10.50;;;7.25;;
36221;SDS011;22266;52.340;4.962;2023-01-16T01:49:04;8.75;;;6.75;;
36221;SDS011;22266;52.340;4.962;2023-01-16T01:51:53;12.25;;;10.75;;
36221;SDS011;22266;52.340;4.962;2023-01-16T01:54:24;8.50;;;7.50;;
36221;SDS011;22266;52.340;4.962;2023-01-16T01:56:56;7.00;;;7.00;;
36221;SDS011;22266;52.340;4.962;2023-01-16T01:59:30;11.50;;;8.25;;
36221;SDS011;22266;52.340;4.962;2023-01-16T02:02:01;13.50;;;11.00;;
36221;SDS011;22266;52.340;4.962;2023-01-16T02:04:31;10.75;;;8.50;;
36221;SDS011;22266;52.340;4.962;2023-01-16T02:07:01;13.00;;;11.50;;
36221;SDS011;22266;52.340;4.962;2023-01-16T02:09:32;12.00;;;11.00;;
36221;SDS011;22266;52.340;4.962;2023-01-16T02:12:02;7.00;;;7.00;;
36221;SDS011;22266;52.340;4.962;2023-01-16T02:14:34;10.25;;;8.75;;
36221;SDS011;22266;52.340;4.962;2023-01-16T02:17:07;15.00;;;9.25;;
36221;SDS011;22266;52.340;4.962;2023-01-16T02:22:45;18.00;;;14.50;;
36221;SDS011;22266;52.340;4.962;2023-01-16T02:31:37;13.75;;;11.00;;
36221;SDS011;22266;52.340;4.962;2023-01-16T02:34:32;17.00;;;13.25;;
36221;SDS011;22266;52.340;4.962;2023-01-16T02:40:03;13.00;;;12.00;;
36221;SDS011;22266;52.340;4.962;2023-01-16T02:45:34;12.00;;;10.75;;
36221;SDS011;22266;52.340;4.962;2023-01-16T02:54:20;10.25;;;10.00;;
36221;SDS011;22266;52.340;4.962;2023-01-16T02:56:34;15.50;;;14.00;;
36221;SDS011;22266;52.340;4.962;2023-01-16T02:59:09;11.50;;;10.25;;
36221;SDS011;22266;52.340;4.962;2023-01-16T03:01:37;22.50;;;20.00;;
36221;SDS011;22266;52.340;4.962;2023-01-16T03:07:16;10.00;;;8.50;;
36221;SDS011;22266;52.340;4.962;2023-01-16T03:16:19;14.25;;;10.75;;
36221;SDS011;22266;52.340;4.962;2023-01-16T03:24:59;10.50;;;10.25;;
36221;SDS011;22266;52.340;4.962;2023-01-16T03:27:41;13.00;;;9.75;;
36221;SDS011;22266;52.340;4.962;2023-01-16T03:30:31;8.75;;;7.00;;
36221;SDS011;22266;52.340;4.962;2023-01-16T03:33:26;18.75;;;10.00;;
36221;SDS011;22266;52.340;4.962;2023-01-16T03:36:00;12.50;;;8.75;;
36221;SDS011;22266;52.340;4.962;2023-01-16T03:38:33;9.00;;;9.00;;
36221;SDS011;22266;52.340;4.962;2023-01-16T03:41:04;13.25;;;9.25;;
36221;SDS011;22266;52.340;4.962;2023-01-16T03:43:38;13.75;;;12.25;;
36221;SDS011;22266;52.340;4.962;2023-01-16T03:46:11;7.00;;;6.50;;
36221;SDS011;22266;52.340;4.962;2023-01-16T03:48:48;7.75;;;7.75;;
36221;SDS011;22266;52.340;4.962;2023-01-16T03:51:24;11.00;;;7.75;;
36221;SDS011;22266;52.340;4.962;2023-01-16T03:59:20;11.75;;;11.75;;
36221;SDS011;22266;52.340;4.962;2023-01-16T04:01:49;7.00;;;7.00;;
36221;SDS011;22266;52.340;4.962;2023-01-16T04:04:21;13.50;;;11.75;;
36221;SDS011;22266;52.340;4.962;2023-01-16T04:06:56;7.00;;;5.00;;
36221;SDS011;22266;52.340;4.962;2023-01-16T04:09:30;9.50;;;7.00;;
36221;SDS011;22266;52.340;4.962;2023-01-16T04:12:05;10.00;;;7.00;;
36221;SDS011;22266;52.340;4.962;2023-01-16T04:14:33;4.00;;;4.00;;
36221;SDS011;22266;52.340;4.962;2023-01-16T04:17:02;5.00;;;5.00;;
36221;SDS011;22266;52.340;4.962;2023-01-16T04:19:30;4.75;;;4.75;;
36221;SDS011;22266;52.340;4.962;2023-01-16T04:21:58;7.25;;;5.50;;
36221;SDS011;22266;52.340;4.962;2023-01-16T04:24:25;4.75;;;3.00;;
36221;SDS011;22266;52.340;4.962;2023-01-16T04:26:51;2.50;;;2.50;;
36221;SDS011;22266;52.340;4.962;2023-01-16T04:29:17;4.25;;;2.50;;
36221;SDS011;22266;52.340;4.962;2023-01-16T04:31:44;2.00;;;2.00;;
36221;SDS011;22266;52.340;4.962;2023-01-16T04:34:10;9.00;;;2.25;;
36221;SDS011;22266;52.340;4.962;2023-01-16T04:36:37;2.25;;;1.75;;
36221;SDS011;22266;52.340;4.962;2023-01-16T04:39:03;2.00;;;2.00;;
36221;SDS011;22266;52.340;4.962;2023-01-16T04:41:29;1.25;;;1.00;;
36221;SDS011;22266;52.340;4.962;2023-01-16T04:44:03;2.00;;;1.00;;
36221;SDS011;22266;52.340;4.962;2023-01-16T04:46:32;1.00;;;1.00;;
36221;SDS011;22266;52.340;4.962;2023-01-16T04:48:58;2.00;;;2.00;;
36221;SDS011;22266;52.340;4.962;2023-01-16T04:51:25;1.00;;;1.00;;
36221;SDS011;22266;52.340;4.962;2023-01-16T04:53:52;0.00;;;0.00;;
36221;SDS011;22266;52.340;4.962;2023-01-16T04:56:18;0.00;;;0.00;;
36221;SDS011;22266;52.340;4.962;2023-01-16T04:58:44;1.00;;;1.00;;
36221;SDS011;22266;52.340;4.962;2023-01-16T05:01:11;0.00;;;0.00;;
36221;SDS011;22266;52.340;4.962;2023-01-16T05:03:37;2.00;;;1.00;;
36221;SDS011;22266;52.340;4.962;2023-01-16T05:06:04;0.50;;;0.50;;
36221;SDS011;22266;52.340;4.962;2023-01-16T05:08:31;2.00;;;1.00;;
36221;SDS011;22266;52.340;4.962;2023-01-16T05:10:57;1.25;;;1.00;;
36221;SDS011;22266;52.340;4.962;2023-01-16T05:13:27;1.00;;;1.00;;
36221;SDS011;22266;52.340;4.962;2023-01-16T05:15:54;0.00;;;0.00;;
36221;SDS011;22266;52.340;4.962;2023-01-16T05:18:22;0.50;;;0.00;;
36221;SDS011;22266;52.340;4.962;2023-01-16T05:20:49;1.00;;;1.00;;
36221;SDS011;22266;52.340;4.962;2023-01-16T05:23:16;1.00;;;0.00;;
36221;SDS011;22266;52.340;4.962;2023-01-16T05:25:42;1.75;;;1.75;;
36221;SDS011;22266;52.340;4.962;2023-01-16T05:28:09;4.00;;;2.00;;
36221;SDS011;22266;52.340;4.962;2023-01-16T05:30:37;4.00;;;2.00;;
36221;SDS011;22266;52.340;4.962;2023-01-16T05:33:06;1.00;;;1.00;;
36221;SDS011;22266;52.340;4.962;2023-01-16T05:35:33;1.00;;;1.00;;
36221;SDS011;22266;52.340;4.962;2023-01-16T05:37:59;0.00;;;0.00;;
36221;SDS011;22266;52.340;4.962;2023-01-16T05:40:26;1.25;;;1.25;;
36221;SDS011;22266;52.340;4.962;2023-01-16T05:42:52;0.75;;;0.75;;
36221;SDS011;22266;52.340;4.962;2023-01-16T05:45:18;1.00;;;1.00;;
36221;SDS011;22266;52.340;4.962;2023-01-16T05:47:45;2.00;;;1.00;;
36221;SDS011;22266;52.340;4.962;2023-01-16T05:50:12;1.00;;;0.25;;
36221;SDS011;22266;52.340;4.962;2023-01-16T05:52:38;1.00;;;1.00;;
36221;SDS011;22266;52.340;4.962;2023-01-16T05:55:05;1.00;;;1.00;;
36221;SDS011;22266;52.340;4.962;2023-01-16T05:57:31;1.75;;;1.00;;
36221;SDS011;22266;52.340;4.962;2023-01-16T05:59:58;1.00;;;1.00;;
36221;SDS011;22266;52.340;4.962;2023-01-16T06:02:24;1.00;;;0.00;;
36221;SDS011;22266;52.340;4.962;2023-01-16T06:04:51;0.75;;;0.75;;
36221;SDS011;22266;52.340;4.962;2023-01-16T06:07:18;2.00;;;1.00;;
36221;SDS011;22266;52.340;4.962;2023-01-16T06:09:45;2.00;;;2.00;;
36221;SDS011;22266;52.340;4.962;2023-01-16T06:12:15;0.25;;;0.25;;
36221;SDS011;22266;52.340;4.962;2023-01-16T06:14:42;0.75;;;0.75;;
36221;SDS011;22266;52.340;4.962;2023-01-16T06:17:12;1.75;;;1.00;;
36221;SDS011;22266;52.340;4.962;2023-01-16T06:19:40;1.50;;;1.50;;
36221;SDS011;22266;52.340;4.962;2023-01-16T06:22:07;1.00;;;0.25;;
36221;SDS011;22266;52.340;4.962;2023-01-16T06:24:33;0.00;;;0.00;;
36221;SDS011;22266;52.340;4.962;2023-01-16T06:27:00;1.00;;;1.00;;
36221;SDS011;22266;52.340;4.962;2023-01-16T06:29:26;0.50;;;0.50;;
36221;SDS011;22266;52.340;4.962;2023-01-16T06:31:53;0.00;;;0.00;;
36221;SDS011;22266;52.340;4.962;2023-01-16T06:34:19;1.00;;;1.00;;
36221;SDS011;22266;52.340;4.962;2023-01-16T06:36:46;1.50;;;1.50;;
36221;SDS011;22266;52.340;4.962;2023-01-16T06:39:14;3.00;;;1.00;;
36221;SDS011;22266;52.340;4.962;2023-01-16T06:41:42;4.75;;;1.50;;
36221;SDS011;22266;52.340;4.962;2023-01-16T06:44:08;1.00;;;1.00;;
36221;SDS011;22266;52.340;4.962;2023-01-16T06:46:35;0.00;;;0.00;;
36221;SDS011;22266;52.340;4.962;2023-01-16T06:49:02;1.50;;;1.00;;
36221;SDS011;22266;52.340;4.962;2023-01-16T06:51:29;2.50;;;2.50;;
36221;SDS011;22266;52.340;4.962;2023-01-16T06:53:55;1.25;;;1.25;;
36221;SDS011;22266;52.340;4.962;2023-01-16T06:56:22;4.50;;;4.00;;
36221;SDS011;22266;52.340;4.962;2023-01-16T06:58:50;1.00;;;1.00;;
36221;SDS011;22266;52.340;4.962;2023-01-16T07:01:16;1.00;;;1.00;;
36221;SDS011;22266;52.340;4.962;2023-01-16T07:03:42;1.00;;;1.00;;
36221;SDS011;22266;52.340;4.962;2023-01-16T07:06:09;4.50;;;4.50;;
36221;SDS011;22266;52.340;4.962;2023-01-16T07:08:35;0.00;;;0.00;;
36221;SDS011;22266;52.340;4.962;2023-01-16T07:11:02;5.00;;;2.00;;
36221;SDS011;22266;52.340;4.962;2023-01-16T07:13:28;0.25;;;0.25;;
36221;SDS011;22266;52.340;4.962;2023-01-16T07:15:55;2.25;;;2.25;;
36221;SDS011;22266;52.340;4.962;2023-01-16T07:18:41;1.00;;;1.00;;
36221;SDS011;22266;52.340;4.962;2023-01-16T07:21:27;1.25;;;1.25;;
36221;SDS011;22266;52.340;4.962;2023-01-16T07:24:17;1.50;;;1.00;;
36221;SDS011;22266;52.340;4.962;2023-01-16T07:26:50;2.00;;;2.00;;
36221;SDS011;22266;52.340;4.962;2023-01-16T07:29:24;1.00;;;1.00;;
36221;SDS011;22266;52.340;4.962;2023-01-16T07:31:55;1.50;;;1.50;;
36221;SDS011;22266;52.340;4.962;2023-01-16T07:34:23;1.00;;;1.00;;
36221;SDS011;22266;52.340;4.962;2023-01-16T07:36:49;1.00;;;1.00;;
36221;SDS011;22266;52.340;4.962;2023-01-16T07:39:15;2.00;;;2.00;;
36221;SDS011;22266;52.340;4.962;2023-01-16T07:41:42;0.00;;;0.00;;
36221;SDS011;22266;52.340;4.962;2023-01-16T07:44:23;1.00;;;0.50;;
36221;SDS011;22266;52.340;4.962;2023-01-16T07:46:49;1.25;;;1.25;;
36221;SDS011;22266;52.340;4.962;2023-01-16T07:49:15;3.00;;;1.25;;
36221;SDS011;22266;52.340;4.962;2023-01-16T07:51:42;1.00;;;1.00;;
36221;SDS011;22266;52.340;4.962;2023-01-16T07:54:08;1.00;;;1.00;;
36221;SDS011;22266;52.340;4.962;2023-01-16T07:56:35;3.50;;;2.00;;
36221;SDS011;22266;52.340;4.962;2023-01-16T07:59:01;1.75;;;1.75;;
36221;SDS011;22266;52.340;4.962;2023-01-16T08:01:28;1.50;;;1.00;;
36221;SDS011;22266;52.340;4.962;2023-01-16T08:03:54;1.00;;;0.75;;
36221;SDS011;22266;52.340;4.962;2023-01-16T08:06:21;4.00;;;1.00;;
36221;SDS011;22266;52.340;4.962;2023-01-16T08:08:47;2.00;;;1.00;;
36221;SDS011;22266;52.340;4.962;2023-01-16T08:11:14;2.25;;;1.50;;
36221;SDS011;22266;52.340;4.962;2023-01-16T08:13:59;0.50;;;0.50;;
36221;SDS011;22266;52.340;4.962;2023-01-16T08:16:26;0.00;;;0.00;;
36221;SDS011;22266;52.340;4.962;2023-01-16T08:18:52;0.00;;;0.00;;
36221;SDS011;22266;52.340;4.962;2023-01-16T08:21:19;0.75;;;0.75;;
36221;SDS011;22266;52.340;4.962;2023-01-16T08:23:46;1.25;;;1.25;;
36221;SDS011;22266;52.340;4.962;2023-01-16T08:26:13;1.00;;;1.00;;
36221;SDS011;22266;52.340;4.962;2023-01-16T08:28:40;0.00;;;0.00;;
36221;SDS011;22266;52.340;4.962;2023-01-16T08:31:08;1.00;;;1.00;;
36221;SDS011;22266;52.340;4.962;2023-01-16T08:33:38;1.75;;;1.00;;
36221;SDS011;22266;52.340;4.962;2023-01-16T08:36:06;0.75;;;0.75;;
36221;SDS011;22266;52.340;4.962;2023-01-16T08:38:34;1.50;;;1.50;;
36221;SDS011;22266;52.340;4.962;2023-01-16T08:41:00;0.25;;;0.25;;
36221;SDS011;22266;52.340;4.962;2023-01-16T08:43:27;1.00;;;1.00;;
36221;SDS011;22266;52.340;4.962;2023-01-16T08:46:21;1.50;;;1.00;;
36221;SDS011;22266;52.340;4.962;2023-01-16T08:49:09;1.75;;;1.75;;
36221;SDS011;22266;52.340;4.962;2023-01-16T08:51:58;2.75;;;1.00;;
36221;SDS011;22266;52.340;4.962;2023-01-16T08:54:24;1.00;;;1.00;;
36221;SDS011;22266;52.340;4.962;2023-01-16T08:56:51;4.75;;;3.00;;
36221;SDS011;22266;52.340;4.962;2023-01-16T08:59:18;1.75;;;1.00;;
36221;SDS011;22266;52.340;4.962;2023-01-16T09:01:44;2.50;;;2.50;;
36221;SDS011;22266;52.340;4.962;2023-01-16T09:04:11;1.75;;;1.75;;
36221;SDS011;22266;52.340;4.962;2023-01-16T09:06:37;4.50;;;2.75;;
36221;SDS011;22266;52.340;4.962;2023-01-16T09:09:04;4.50;;;2.50;;
36221;SDS011;22266;52.340;4.962;2023-01-16T09:11:32;6.00;;;6.00;;
36221;SDS011;22266;52.340;4.962;2023-01-16T09:14:18;6.25;;;3.75;;
36221;SDS011;22266;52.340;4.962;2023-01-16T09:16:51;4.00;;;3.00;;
36221;SDS011;22266;52.340;4.962;2023-01-16T09:19:18;2.25;;;2.25;;
36221;SDS011;22266;52.340;4.962;2023-01-16T09:21:44;8.00;;;5.00;;
36221;SDS011;22266;52.340;4.962;2023-01-16T09:24:11;3.75;;;3.75;;
36221;SDS011;22266;52.340;4.962;2023-01-16T09:26:37;6.00;;;6.00;;
36221;SDS011;22266;52.340;4.962;2023-01-16T09:29:04;6.50;;;4.00;;
36221;SDS011;22266;52.340;4.962;2023-01-16T09:31:30;5.00;;;4.50;;
36221;SDS011;22266;52.340;4.962;2023-01-16T09:33:57;4.00;;;3.00;;
36221;SDS011;22266;52.340;4.962;2023-01-16T09:36:23;6.00;;;4.50;;
36221;SDS011;22266;52.340;4.962;2023-01-16T09:38:49;5.50;;;4.00;;
36221;SDS011;22266;52.340;4.962;2023-01-16T09:41:16;5.00;;;5.00;;
36221;SDS011;22266;52.340;4.962;2023-01-16T09:44:06;6.50;;;5.00;;
36221;SDS011;22266;52.340;4.962;2023-01-16T09:46:35;9.75;;;7.00;;
36221;SDS011;22266;52.340;4.962;2023-01-16T09:49:13;5.50;;;4.25;;
36221;SDS011;22266;52.340;4.962;2023-01-16T09:51:47;3.50;;;3.50;;
36221;SDS011;22266;52.340;4.962;2023-01-16T09:54:51;5.00;;;5.00;;
36221;SDS011;22266;52.340;4.962;2023-01-16T09:57:39;6.00;;;4.75;;
36221;SDS011;22266;52.340;4.962;2023-01-16T10:00:28;8.00;;;5.00;;
36221;SDS011;22266;52.340;4.962;2023-01-16T10:02:59;8.00;;;7.00;;
36221;SDS011;22266;52.340;4.962;2023-01-16T10:05:28;7.00;;;5.00;;
36221;SDS011;22266;52.340;4.962;2023-01-16T10:08:17;5.50;;;5.00;;
36221;SDS011;22266;52.340;4.962;2023-01-16T10:13:53;4.50;;;4.00;;
36221;SDS011;22266;52.340;4.962;2023-01-16T10:16:49;4.50;;;4.50;;
36221;SDS011;22266;52.340;4.962;2023-01-16T10:19:32;8.00;;;4.00;;
36221;SDS011;22266;52.340;4.962;2023-01-16T10:24:52;8.25;;;6.50;;
36221;SDS011;22266;52.340;4.962;2023-01-16T10:27:51;2.00;;;2.00;;
36221;SDS011;22266;52.340;4.962;2023-01-16T10:33:25;5.00;;;5.00;;
36221;SDS011;22266;52.340;4.962;2023-01-16T10:35:58;2.25;;;2.25;;
36221;SDS011;22266;52.340;4.962;2023-01-16T10:38:39;2.50;;;2.50;;
36221;SDS011;22266;52.340;4.962;2023-01-16T10:41:17;3.50;;;3.50;;
36221;SDS011;22266;52.340;4.962;2023-01-16T10:44:05;4.00;;;2.00;;
36221;SDS011;22266;52.340;4.962;2023-01-16T10:47:08;1.50;;;1.25;;
36221;SDS011;22266;52.340;4.962;2023-01-16T10:49:54;3.50;;;3.50;;
36221;SDS011;22266;52.340;4.962;2023-01-16T10:52:21;1.00;;;1.00;;
36221;SDS011;22266;52.340;4.962;2023-01-16T10:54:51;4.25;;;3.50;;
36221;SDS011;22266;52.340;4.962;2023-01-16T10:57:20;1.75;;;1.00;;
36221;SDS011;22266;52.340;4.962;2023-01-16T10:59:47;1.00;;;1.00;;
36221;SDS011;22266;52.340;4.962;2023-01-16T11:02:19;1.00;;;1.00;;
36221;SDS011;22266;52.340;4.962;2023-01-16T11:04:55;1.00;;;1.00;;
36221;SDS011;22266;52.340;4.962;2023-01-16T11:07:22;0.00;;;0.00;;
36221;SDS011;22266;52.340;4.962;2023-01-16T11:09:51;1.25;;;1.00;;
36221;SDS011;22266;52.340;4.962;2023-01-16T11:12:22;1.50;;;0.75;;
36221;SDS011;22266;52.340;4.962;2023-01-16T11:15:17;1.00;;;1.00;;
36221;SDS011;22266;52.340;4.962;2023-01-16T11:21:01;0.00;;;0.00;;
36221;SDS011;22266;52.340;4.962;2023-01-16T11:23:43;0.50;;;0.50;;
36221;SDS011;22266;52.340;4.962;2023-01-16T11:26:13;0.00;;;0.00;;
36221;SDS011;22266;52.340;4.962;2023-01-16T11:28:39;1.00;;;1.00;;
36221;SDS011;22266;52.340;4.962;2023-01-16T11:31:18;0.75;;;0.50;;
36221;SDS011;22266;52.340;4.962;2023-01-16T11:33:48;0.00;;;0.00;;
36221;SDS011;22266;52.340;4.962;2023-01-16T11:36:20;0.00;;;0.00;;
36221;SDS011;22266;52.340;4.962;2023-01-16T11:38:49;0.00;;;0.00;;
36221;SDS011;22266;52.340;4.962;2023-01-16T11:41:18;4.00;;;2.50;;
36221;SDS011;22266;52.340;4.962;2023-01-16T11:43:47;1.00;;;1.00;;
36221;SDS011;22266;52.340;4.962;2023-01-16T11:46:50;2.25;;;1.00;;
36221;SDS011;22266;52.340;4.962;2023-01-16T11:49:24;0.25;;;0.25;;
36221;SDS011;22266;52.340;4.962;2023-01-16T11:51:59;0.25;;;0.25;;
36221;SDS011;22266;52.340;4.962;2023-01-16T11:54:30;1.00;;;1.00;;
36221;SDS011;22266;52.340;4.962;2023-01-16T11:57:03;1.00;;;1.00;;
36221;SDS011;22266;52.340;4.962;2023-01-16T12:05:06;1.50;;;1.50;;
36221;SDS011;22266;52.340;4.962;2023-01-16T12:10:39;2.00;;;1.00;;
36221;SDS011;22266;52.340;4.962;2023-01-16T12:13:13;1.00;;;1.00;;
36221;SDS011;22266;52.340;4.962;2023-01-16T12:16:38;3.50;;;1.75;;
36221;SDS011;22266;52.340;4.962;2023-01-16T12:19:25;1.00;;;1.00;;
36221;SDS011;22266;52.340;4.962;2023-01-16T12:25:02;2.00;;;1.00;;
36221;SDS011;22266;52.340;4.962;2023-01-16T12:27:50;2.00;;;2.00;;
36221;SDS011;22266;52.340;4.962;2023-01-16T12:30:40;4.00;;;4.00;;
36221;SDS011;22266;52.340;4.962;2023-01-16T12:42:48;4.00;;;4.00;;
36221;SDS011;22266;52.340;4.962;2023-01-16T12:56:22;5.00;;;3.50;;
36221;SDS011;22266;52.340;4.962;2023-01-16T12:59:18;3.00;;;3.00;;
36221;SDS011;22266;52.340;4.962;2023-01-16T13:01:51;8.50;;;4.75;;
36221;SDS011;22266;52.340;4.962;2023-01-16T13:04:28;4.00;;;4.00;;
36221;SDS011;22266;52.340;4.962;2023-01-16T13:06:59;2.00;;;2.00;;
36221;SDS011;22266;52.340;4.962;2023-01-16T13:12:56;2.25;;;2.25;;
36221;SDS011;22266;52.340;4.962;2023-01-16T13:15:43;1.50;;;1.00;;
36221;SDS011;22266;52.340;4.962;2023-01-16T13:18:19;1.00;;;1.00;;
36221;SDS011;22266;52.340;4.962;2023-01-16T13:20:54;0.75;;;0.75;;
36221;SDS011;22266;52.340;4.962;2023-01-16T13:23:24;1.00;;;1.00;;
36221;SDS011;22266;52.340;4.962;2023-01-16T13:25:59;0.50;;;0.50;;
36221;SDS011;22266;52.340;4.962;2023-01-16T13:34:50;2.00;;;1.00;;
36221;SDS011;22266;52.340;4.962;2023-01-16T13:37:18;2.25;;;0.00;;
36221;SDS011;22266;52.340;4.962;2023-01-16T13:43:09;1.00;;;1.00;;
36221;SDS011;22266;52.340;4.962;2023-01-16T13:46:01;1.00;;;1.00;;
36221;SDS011;22266;52.340;4.962;2023-01-16T13:48:29;0.75;;;0.75;;
36221;SDS011;22266;52.340;4.962;2023-01-16T13:50:59;0.00;;;0.00;;
36221;SDS011;22266;52.340;4.962;2023-01-16T13:53:28;0.75;;;0.75;;
36221;SDS011;22266;52.340;4.962;2023-01-16T13:56:03;0.75;;;0.75;;
36221;SDS011;22266;52.340;4.962;2023-01-16T13:58:32;0.75;;;0.75;;
36221;SDS011;22266;52.340;4.962;2023-01-16T14:01:04;1.00;;;1.00;;
36221;SDS011;22266;52.340;4.962;2023-01-16T14:03:33;3.00;;;1.50;;
36221;SDS011;22266;52.340;4.962;2023-01-16T14:08:46;1.00;;;0.50;;
36221;SDS011;22266;52.340;4.962;2023-01-16T14:11:36;4.50;;;2.00;;
36221;SDS011;22266;52.340;4.962;2023-01-16T14:17:20;2.00;;;2.00;;
36221;SDS011;22266;52.340;4.962;2023-01-16T14:19:56;2.00;;;2.00;;
36221;SDS011;22266;52.340;4.962;2023-01-16T14:22:34;1.00;;;1.00;;
36221;SDS011;22266;52.340;4.962;2023-01-16T14:25:06;2.00;;;2.00;;
36221;SDS011;22266;52.340;4.962;2023-01-16T14:27:47;1.00;;;1.00;;
36221;SDS011;22266;52.340;4.962;2023-01-16T14:30:17;0.50;;;0.50;;
36221;SDS011;22266;52.340;4.962;2023-01-16T14:32:47;2.50;;;2.50;;
36221;SDS011;22266;52.340;4.962;2023-01-16T14:35:20;1.50;;;1.50;;
36221;SDS011;22266;52.340;4.962;2023-01-16T14:38:04;2.00;;;2.00;;
36221;SDS011;22266;52.340;4.962;2023-01-16T14:40:37;1.50;;;1.00;;
36221;SDS011;22266;52.340;4.962;2023-01-16T14:43:28;1.00;;;1.00;;
36221;SDS011;22266;52.340;4.962;2023-01-16T14:49:36;3.00;;;2.00;;
36221;SDS011;22266;52.340;4.962;2023-01-16T14:52:43;2.00;;;2.00;;
36221;SDS011;22266;52.340;4.962;2023-01-16T14:55:36;2.00;;;2.00;;
36221;SDS011;22266;52.340;4.962;2023-01-16T14:58:20;4.00;;;4.00;;
36221;SDS011;22266;52.340;4.962;2023-01-16T15:00:52;3.50;;;2.50;;
36221;SDS011;22266;52.340;4.962;2023-01-16T15:03:26;2.50;;;2.50;;
36221;SDS011;22266;52.340;4.962;2023-01-16T15:05:56;5.00;;;4.00;;
36221;SDS011;22266;52.340;4.962;2023-01-16T15:08:35;9.50;;;7.00;;
36221;SDS011;22266;52.340;4.962;2023-01-16T15:11:27;4.75;;;4.75;;
36221;SDS011;22266;52.340;4.962;2023-01-16T15:14:05;3.00;;;3.00;;
36221;SDS011;22266;52.340;4.962;2023-01-16T15:16:50;5.00;;;4.75;;
36221;SDS011;22266;52.340;4.962;2023-01-16T15:19:37;6.00;;;5.00;;
36221;SDS011;22266;52.340;4.962;2023-01-16T15:22:41;6.50;;;4.00;;
36221;SDS011;22266;52.340;4.962;2023-01-16T15:25:14;4.00;;;4.00;;
36221;SDS011;22266;52.340;4.962;2023-01-16T15:30:58;2.00;;;1.00;;
36221;SDS011;22266;52.340;4.962;2023-01-16T15:33:28;2.00;;;2.00;;
36221;SDS011;22266;52.340;4.962;2023-01-16T15:39:17;1.00;;;1.00;;
36221;SDS011;22266;52.340;4.962;2023-01-16T15:44:41;1.00;;;1.00;;
36221;SDS011;22266;52.340;4.962;2023-01-16T15:52:30;1.00;;;1.00;;
36221;SDS011;22266;52.340;4.962;2023-01-16T15:54:59;2.50;;;2.50;;
36221;SDS011;22266;52.340;4.962;2023-01-16T15:57:25;2.25;;;1.00;;
36221;SDS011;22266;52.340;4.962;2023-01-16T15:59:53;1.00;;;1.00;;
36221;SDS011;22266;52.340;4.962;2023-01-16T16:04:54;3.00;;;3.00;;
36221;SDS011;22266;52.340;4.962;2023-01-16T16:07:24;1.50;;;1.50;;
36221;SDS011;22266;52.340;4.962;2023-01-16T16:09:53;4.00;;;2.00;;
36221;SDS011;22266;52.340;4.962;2023-01-16T16:12:24;4.25;;;4.00;;
36221;SDS011;22266;52.340;4.962;2023-01-16T16:15:02;4.50;;;4.25;;
36221;SDS011;22266;52.340;4.962;2023-01-16T16:18:14;5.00;;;5.00;;
36221;SDS011;22266;52.340;4.962;2023-01-16T16:20:43;6.50;;;6.50;;
36221;SDS011;22266;52.340;4.962;2023-01-16T16:25:40;2.50;;;2.50;;
36221;SDS011;22266;52.340;4.962;2023-01-16T16:30:46;4.00;;;4.00;;
36221;SDS011;22266;52.340;4.962;2023-01-16T16:33:21;2.50;;;2.50;;
36221;SDS011;22266;52.340;4.962;2023-01-16T16:35:49;5.25;;;5.25;;
36221;SDS011;22266;52.340;4.962;2023-01-16T16:38:18;6.00;;;4.50;;
36221;SDS011;22266;52.340;4.962;2023-01-16T16:43:56;4.25;;;4.25;;
36221;SDS011;22266;52.340;4.962;2023-01-16T16:48:51;1.00;;;1.00;;
36221;SDS011;22266;52.340;4.962;2023-01-16T16:51:38;0.00;;;0.00;;
36221;SDS011;22266;52.340;4.962;2023-01-16T16:54:05;2.25;;;2.00;;
36221;SDS011;22266;52.340;4.962;2023-01-16T16:56:38;1.00;;;1.00;;
36221;SDS011;22266;52.340;4.962;2023-01-16T16:59:20;1.25;;;1.25;;
36221;SDS011;22266;52.340;4.962;2023-01-16T17:01:51;1.00;;;1.00;;
36221;SDS011;22266;52.340;4.962;2023-01-16T17:04:21;1.00;;;1.00;;
36221;SDS011;22266;52.340;4.962;2023-01-16T17:06:48;2.00;;;2.00;;
36221;SDS011;22266;52.340;4.962;2023-01-16T17:09:17;4.00;;;2.00;;
36221;SDS011;22266;52.340;4.962;2023-01-16T17:11:44;4.75;;;2.00;;
36221;SDS011;22266;52.340;4.962;2023-01-16T17:14:11;4.75;;;4.75;;
36221;SDS011;22266;52.340;4.962;2023-01-16T17:16:38;3.00;;;3.00;;
36221;SDS011;22266;52.340;4.962;2023-01-16T17:19:12;6.75;;;6.00;;
36221;SDS011;22266;52.340;4.962;2023-01-16T17:21:45;1.00;;;1.00;;
36221;SDS011;22266;52.340;4.962;2023-01-16T17:24:13;1.00;;;1.00;;
36221;SDS011;22266;52.340;4.962;2023-01-16T17:26:41;2.00;;;2.00;;
36221;SDS011;22266;52.340;4.962;2023-01-16T17:29:08;7.25;;;3.00;;